Terminal Aerodrome Forecast
Issued by NWS

Home | Current Version | Previous Version | Text Only | Print | Product List | Glossary On
Versions: 1 2 3 4 5 6 7 8 9 10 11 12 13 14 15 16 17 18 19 20 21 22 23 24 25 26 27
000
FTUS41 KBUF 240543 CCA
TAFJHW
TAF COR
KJHW 240543Z 2406/2506 19005KT 2SM BR VCSH OVC007
     FM240800 19006KT 2SM -SHRA BR VCTS OVC007CB
     FM241400 20011KT P6SM BKN035
     FM241800 20012G18KT P6SM SCT035
     FM242200 18008KT P6SM SCT200
     FM250200 17011KT P6SM SCT040
      AMD LTD TO VIS AND WIND=

USA.gov is the U.S. government's official web portal to all federal, state and local government web resources and services.